Time;durP1;ratioP1;P1;durP2;ratioP2;P2;SDS_P1;SDS_P2;PMS_P1;PMS_P2;Temp;Humidity;BMP_temperature;BMP_pressure;BME280_temperature;BME280_humidity;BME280_pressure;Samples;Min_cycle;Max_cycle;Signal;HPM_P1;HPM_P2
2022/01/29 00:01:19;;;;;;;5.60;1.80;;;;;;;3.27;99.05;100703.81;4896825;29;20196;-80
2022/01/29 00:03:46;;;;;;;5.53;2.30;;;;;;;3.29;98.29;100704.50;4866650;29;20191;-80
2022/01/29 00:06:14;;;;;;;6.73;1.90;;;;;;;3.16;97.97;100690.78;4897079;29;20203;-80
2022/01/29 00:08:41;;;;;;;6.80;2.43;;;;;;;3.36;96.97;100716.19;4881256;29;20209;-80
2022/01/29 00:11:11;;;;;;;3.90;2.03;;;;;;;3.22;98.16;100711.38;4881501;29;20195;-79
2022/01/29 00:13:38;;;;;;;5.63;1.90;;;;;;;3.22;99.06;100715.84;4882793;29;20588;-80
2022/01/29 00:16:05;;;;;;;8.70;1.97;;;;;;;3.03;99.99;100709.63;4882206;29;20191;-80
2022/01/29 00:18:33;;;;;;;3.43;1.37;;;;;;;3.12;98.87;100710.59;4898710;29;20218;-80
2022/01/29 00:21:00;;;;;;;7.87;1.80;;;;;;;3.08;98.99;100709.19;4882102;29;20206;-80
2022/01/29 00:23:26;;;;;;;7.33;2.33;;;;;;;3.05;99.26;100699.75;4881761;29;20298;-80
2022/01/29 00:25:53;;;;;;;7.37;2.20;;;;;;;2.99;100.00;100715.34;4881951;29;20187;-80
2022/01/29 00:28:20;;;;;;;7.20;1.77;;;;;;;2.85;100.00;100697.28;4882190;29;20191;-80
2022/01/29 00:30:47;;;;;;;5.43;1.67;;;;;;;2.84;100.00;100703.59;4881802;29;20218;-80
2022/01/29 00:33:15;;;;;;;6.40;2.07;;;;;;;2.95;98.23;100700.75;4866737;29;20599;-80
2022/01/29 00:35:42;;;;;;;8.03;1.97;;;;;;;2.95;98.41;100695.44;4881757;29;20203;-79
2022/01/29 00:38:08;;;;;;;5.40;1.70;;;;;;;3.04;97.64;100707.81;4881962;29;20238;-80
2022/01/29 00:40:36;;;;;;;9.57;2.23;;;;;;;2.89;98.72;100709.28;4881881;29;20243;-80
2022/01/29 00:43:04;;;;;;;7.17;2.10;;;;;;;2.89;98.64;100704.00;4881787;29;20205;-80
2022/01/29 00:45:32;;;;;;;3.97;1.50;;;;;;;2.88;97.27;100703.16;4882222;29;20187;-80
2022/01/29 00:47:59;;;;;;;7.73;1.97;;;;;;;2.70;98.97;100677.59;4881785;29;20229;-80
2022/01/29 00:50:26;;;;;;;5.73;1.70;;;;;;;2.89;97.75;100707.44;4881795;29;20234;-80
2022/01/29 00:52:53;;;;;;;4.03;1.80;;;;;;;2.81;98.10;100690.63;4881844;29;20191;-79
2022/01/29 00:55:20;;;;;;;8.20;2.03;;;;;;;2.63;99.78;100696.66;4881931;29;20592;-79
2022/01/29 00:57:47;;;;;;;5.43;1.70;;;;;;;2.47;100.00;100704.34;4866134;29;20206;-81
2022/01/29 01:00:14;;;;;;;6.43;1.77;;;;;;;2.54;100.00;100699.31;4881886;29;20194;-80
2022/01/29 01:02:41;;;;;;;4.73;1.80;;;;;;;2.41;100.00;100682.94;4881741;29;20195;-80
2022/01/29 01:05:08;;;;;;;7.23;2.00;;;;;;;2.38;100.00;100684.03;4866132;29;20211;-81
2022/01/29 01:07:35;;;;;;;7.30;2.00;;;;;;;2.51;100.00;100687.22;4866184;29;20203;-80
2022/01/29 01:10:03;;;;;;;5.03;2.00;;;;;;;2.37;100.00;100682.38;4881623;29;20294;-80
2022/01/29 01:12:30;;;;;;;5.37;2.00;;;;;;;2.31;100.00;100674.16;4893774;29;20209;-80
2022/01/29 01:14:57;;;;;;;4.47;1.70;;;;;;;2.36;100.00;100671.94;4903014;29;20507;-80
2022/01/29 01:17:23;;;;;;;6.00;2.10;;;;;;;2.43;100.00;100665.94;4904081;29;20217;-80
2022/01/29 01:19:50;;;;;;;7.57;1.67;;;;;;;2.21;100.00;100656.50;4903378;29;20194;-80
2022/01/29 01:22:17;;;;;;;6.17;2.23;;;;;;;2.23;100.00;100659.03;4887890;29;20210;-79
2022/01/29 01:24:44;;;;;;;5.70;2.20;;;;;;;2.12;100.00;100652.06;4903193;29;20701;-80
2022/01/29 01:27:11;;;;;;;5.37;2.23;;;;;;;2.18;100.00;100659.44;4887698;29;20198;-80
2022/01/29 01:29:37;;;;;;;6.43;2.30;;;;;;;2.20;100.00;100664.56;4887977;29;20202;-80
2022/01/29 01:32:05;;;;;;;4.60;2.00;;;;;;;2.25;100.00;100670.28;4919773;29;20194;-80
2022/01/29 01:34:37;;;;;;;6.23;2.20;;;;;;;2.02;100.00;100653.88;4903172;29;20517;-80
2022/01/29 01:37:09;;;;;;;5.23;1.93;;;;;;;1.94;100.00;100677.53;4903256;29;20195;-79
2022/01/29 01:39:38;;;;;;;6.63;2.17;;;;;;;2.02;100.00;100661.81;4902560;29;20242;-80
2022/01/29 01:42:06;;;;;;;6.60;2.17;;;;;;;2.09;100.00;100664.75;4886590;29;20504;-79
2022/01/29 01:44:43;;;;;;;5.70;2.50;;;;;;;2.09;100.00;100656.81;4887767;29;20198;-80
2022/01/29 01:47:10;;;;;;;6.80;2.40;;;;;;;1.82;100.00;100639.00;4919970;29;20196;-80
2022/01/29 01:49:37;;;;;;;6.97;2.20;;;;;;;1.90;100.00;100652.38;4887964;29;20214;-80
2022/01/29 01:52:08;;;;;;;6.73;2.33;;;;;;;2.04;100.00;100657.22;4903050;29;20238;-80
2022/01/29 01:54:35;;;;;;;4.17;2.20;;;;;;;1.91;100.00;100655.84;4903381;29;20183;-81
2022/01/29 01:57:02;;;;;;;5.63;1.90;;;;;;;1.86;100.00;100652.78;4903169;29;20194;-80
2022/01/29 01:59:29;;;;;;;7.20;2.30;;;;;;;1.81;100.00;100663.75;4903207;29;20186;-80
2022/01/29 02:01:56;;;;;;;8.03;2.30;;;;;;;1.99;100.00;100661.25;4887431;29;20194;-80
2022/01/29 02:04:24;;;;;;;8.80;2.10;;;;;;;1.73;100.00;100640.66;4887565;29;20212;-80
2022/01/29 02:06:51;;;;;;;9.00;2.10;;;;;;;1.86;100.00;100645.69;4887555;29;20182;-80
2022/01/29 02:09:21;;;;;;;8.20;2.40;;;;;;;1.76;100.00;100645.69;4902887;29;20348;-80
2022/01/29 02:11:52;;;;;;;6.17;2.20;;;;;;;1.64;100.00;100636.22;4887298;29;20198;-80
2022/01/29 02:14:20;;;;;;;6.80;2.27;;;;;;;1.69;100.00;100643.72;4887612;29;20178;-79
2022/01/29 02:16:47;;;;;;;6.23;1.97;;;;;;;1.58;100.00;100638.59;4902842;29;20186;-79
2022/01/29 02:19:14;;;;;;;8.67;2.30;;;;;;;1.47;100.00;100628.13;4887132;29;20201;-80
2022/01/29 02:21:40;;;;;;;5.80;1.93;;;;;;;1.66;100.00;100638.72;4902560;29;20698;-79
2022/01/29 02:24:07;;;;;;;5.77;2.37;;;;;;;1.55;100.00;100634.38;4886304;29;20230;-80
2022/01/29 02:26:34;;;;;;;5.70;2.00;;;;;;;1.44;100.00;100625.78;4902487;29;20210;-80
2022/01/29 02:29:01;;;;;;;11.07;2.40;;;;;;;1.43;100.00;100632.84;4902573;29;20670;-80
2022/01/29 02:31:27;;;;;;;7.03;2.20;;;;;;;1.37;100.00;100617.56;4886884;29;20195;-79
2022/01/29 02:33:54;;;;;;;9.50;2.00;;;;;;;1.30;100.00;100632.28;4886651;29;20234;-80
2022/01/29 02:36:21;;;;;;;6.60;2.43;;;;;;;1.13;100.00;100603.88;4887013;29;20198;-79
2022/01/29 02:38:48;;;;;;;6.40;2.00;;;;;;;1.12;100.00;100624.16;4902614;29;20613;-80
2022/01/29 02:41:15;;;;;;;7.73;2.47;;;;;;;1.08;100.00;100624.56;4886609;29;20490;-80
2022/01/29 02:48:50;;;;;;;9.67;2.70;;;;;;;0.99;100.00;100622.72;4918886;29;20218;-81
2022/01/29 02:51:17;;;;;;;7.63;2.10;;;;;;;1.04;100.00;100639.84;4902135;29;20202;-80
2022/01/29 02:53:44;;;;;;;9.77;3.00;;;;;;;0.98;100.00;100636.91;4902052;29;20190;-80
2022/01/29 02:56:10;;;;;;;7.13;2.40;;;;;;;1.04;100.00;100624.00;4901975;29;20665;-80
2022/01/29 02:58:37;;;;;;;7.87;2.90;;;;;;;1.05;100.00;100609.84;4902372;29;20187;-80
2022/01/29 03:01:06;;;;;;;7.33;2.83;;;;;;;1.06;100.00;100622.09;4886465;29;20682;-80
2022/01/29 03:03:33;;;;;;;8.50;2.80;;;;;;;1.14;100.00;100618.75;4918618;29;20599;-79
2022/01/29 03:06:02;;;;;;;8.80;2.80;;;;;;;1.21;100.00;100619.91;4902035;29;20190;-79
2022/01/29 03:08:29;;;;;;;8.60;2.87;;;;;;;1.07;100.00;100617.63;4901691;29;20222;-80
2022/01/29 03:10:55;;;;;;;10.10;2.80;;;;;;;1.10;100.00;100618.19;4918305;29;20212;-80
2022/01/29 03:13:22;;;;;;;6.47;2.70;;;;;;;1.16;100.00;100616.81;4886237;29;20565;-80
2022/01/29 03:15:49;;;;;;;8.47;3.23;;;;;;;1.09;100.00;100619.16;4886084;29;20198;-80
2022/01/29 03:18:16;;;;;;;10.13;3.07;;;;;;;1.11;100.00;100617.25;4901834;29;20201;-80
2022/01/29 03:20:42;;;;;;;8.47;2.90;;;;;;;1.21;100.00;100635.75;4885950;29;20494;-80
2022/01/29 03:23:09;;;;;;;8.07;3.03;;;;;;;1.19;100.00;100629.75;4901345;29;20698;-80
2022/01/29 03:25:36;;;;;;;8.47;3.03;;;;;;;1.09;100.00;100628.88;4901486;29;20186;-80
2022/01/29 03:28:02;;;;;;;8.03;3.20;;;;;;;1.06;100.00;100622.09;4918216;29;20194;-80
2022/01/29 03:30:29;;;;;;;5.90;3.30;;;;;;;1.03;100.00;100624.97;4885747;29;20216;-80
2022/01/29 03:32:56;;;;;;;8.93;3.60;;;;;;;1.13;100.00;100639.03;4901525;29;20194;-80
2022/01/29 03:35:23;;;;;;;9.10;3.63;;;;;;;1.01;100.00;100636.66;4901214;29;20193;-80
2022/01/29 03:37:50;;;;;;;10.07;3.73;;;;;;;0.93;100.00;100628.56;4900809;29;20201;-80
2022/01/29 03:40:16;;;;;;;11.13;3.83;;;;;;;0.76;100.00;100620.31;4901176;29;20213;-80
2022/01/29 03:42:55;;;;;;;10.97;3.67;;;;;;;0.61;100.00;100608.44;4885542;29;20217;-80
2022/01/29 03:45:22;;;;;;;8.50;3.97;;;;;;;0.72;100.00;100626.81;4887053;29;20202;-79
2022/01/29 03:47:48;;;;;;;7.37;3.43;;;;;;;0.60;100.00;100617.34;4885693;29;20199;-79
2022/01/29 03:50:15;;;;;;;6.80;3.57;;;;;;;0.60;100.00;100625.25;4885375;29;20262;-80
2022/01/29 03:52:42;;;;;;;7.37;3.30;;;;;;;0.51;100.00;100627.84;4885669;29;20186;-80
2022/01/29 03:55:09;;;;;;;12.13;3.90;;;;;;;0.50;100.00;100620.88;4917656;29;20210;-80
2022/01/29 03:57:36;;;;;;;8.13;2.80;;;;;;;0.61;100.00;100618.13;4885761;29;20541;-80
2022/01/29 04:00:05;;;;;;;8.00;2.80;;;;;;;0.64;100.00;100644.28;4901071;29;20185;-80
2022/01/29 04:02:31;;;;;;;7.03;3.20;;;;;;;0.52;100.00;100634.75;4885955;29;20230;-80
2022/01/29 04:04:58;;;;;;;7.33;3.50;;;;;;;0.46;100.00;100616.84;4885404;29;20218;-80
2022/01/29 04:07:25;;;;;;;9.60;3.10;;;;;;;0.51;100.00;100612.00;4900915;29;20206;-80
2022/01/29 04:09:53;;;;;;;8.30;3.40;;;;;;;0.43;100.00;100613.47;4885525;29;20508;-80
2022/01/29 04:12:20;;;;;;;9.73;3.43;;;;;;;0.38;100.00;100613.03;4885109;29;20242;-80
2022/01/29 04:14:47;;;;;;;8.10;3.47;;;;;;;0.26;100.00;100603.56;4885551;29;20241;-79
2022/01/29 04:17:14;;;;;;;14.50;3.77;;;;;;;0.19;100.00;100598.91;4900758;29;20956;-80
2022/01/29 04:19:41;;;;;;;9.27;3.57;;;;;;;0.13;100.00;100600.28;4900965;29;20186;-80
2022/01/29 04:22:07;;;;;;;7.30;3.40;;;;;;;0.10;100.00;100597.88;4885344;29;20601;-80
2022/01/29 04:24:34;;;;;;;9.40;3.47;;;;;;;-0.02;100.00;100602.41;4884885;29;20230;-80
2022/01/29 04:27:04;;;;;;;8.27;3.33;;;;;;;-0.05;100.00;100601.84;4885144;29;20194;-79
2022/01/29 04:29:40;;;;;;;7.60;3.17;;;;;;;-0.11;100.00;100620.78;4885557;29;20911;-80
2022/01/29 04:32:15;;;;;;;8.40;3.53;;;;;;;-0.17;100.00;100611.56;4901970;29;20277;-80
2022/01/29 04:34:41;;;;;;;7.90;3.03;;;;;;;-0.27;100.00;100610.66;4886070;29;20198;-79
2022/01/29 04:37:08;;;;;;;7.40;3.17;;;;;;;-0.29;100.00;100617.03;4884687;29;20281;-80
2022/01/29 04:39:35;;;;;;;8.17;2.77;;;;;;;-0.38;100.00;100607.25;4884990;29;20293;-80
2022/01/29 04:42:02;;;;;;;8.43;3.37;;;;;;;-0.33;100.00;100603.28;4900584;29;20286;-80
2022/01/29 04:44:28;;;;;;;7.33;2.97;;;;;;;-0.40;100.00;100598.63;4900685;29;20186;-80
2022/01/29 04:46:55;;;;;;;10.93;3.67;;;;;;;-0.24;100.00;100586.72;4900417;29;20492;-80
2022/01/29 04:49:22;;;;;;;11.50;3.30;;;;;;;-0.08;100.00;100594.16;4888830;29;20206;-80
2022/01/29 04:51:48;;;;;;;6.20;3.10;;;;;;;-0.16;100.00;100586.91;4904200;29;20228;-80
2022/01/29 04:54:15;;;;;;;9.60;3.40;;;;;;;0.14;100.00;100586.13;4888831;29;20186;-80
2022/01/29 04:56:42;;;;;;;7.73;3.27;;;;;;;0.13;100.00;100597.66;4904233;29;20190;-80
2022/01/29 04:59:08;;;;;;;8.23;3.30;;;;;;;0.02;100.00;100579.25;4904207;29;20713;-80
2022/01/29 05:01:35;;;;;;;7.97;3.43;;;;;;;0.04;100.00;100582.63;4888688;29;20193;-80
2022/01/29 05:04:02;;;;;;;8.80;2.80;;;;;;;-0.01;100.00;100569.84;4904347;29;20179;-80
2022/01/29 05:06:29;;;;;;;7.43;3.47;;;;;;;0.06;100.00;100567.50;4888228;29;20198;-80
2022/01/29 05:08:55;;;;;;;7.20;3.70;;;;;;;0.11;100.00;100577.66;4903972;29;20504;-80
2022/01/29 05:11:22;;;;;;;9.07;3.53;;;;;;;0.07;100.00;100568.34;4888412;29;20218;-80
2022/01/29 05:13:49;;;;;;;8.87;3.60;;;;;;;0.04;100.00;100568.59;4903892;29;20191;-80
2022/01/29 05:27:09;;;;;;;7.63;3.60;;;;;;;0.27;100.00;100565.69;4906596;29;20631;-80
2022/01/29 05:29:37;;;;;;;8.83;3.93;;;;;;;0.36;100.00;100586.00;4903669;29;20686;-81
2022/01/29 05:32:07;;;;;;;7.17;3.83;;;;;;;0.59;100.00;100588.44;4888650;29;20210;-80
2022/01/29 05:34:35;;;;;;;8.97;4.17;;;;;;;0.64;100.00;100583.59;4888374;29;20246;-80
2022/01/29 05:37:02;;;;;;;7.97;3.90;;;;;;;0.73;100.00;100573.09;4903351;29;20190;-80
2022/01/29 05:39:30;;;;;;;6.47;3.67;;;;;;;0.77;100.00;100573.66;4887849;29;20282;-80
2022/01/29 05:41:58;;;;;;;8.17;3.80;;;;;;;0.73;100.00;100567.81;4887718;29;20221;-80
2022/01/29 05:44:26;;;;;;;6.43;3.87;;;;;;;0.89;100.00;100583.13;4872393;29;20198;-80
2022/01/29 05:46:52;;;;;;;8.23;4.40;;;;;;;1.01;100.00;100579.44;4887937;29;20246;-80
2022/01/29 05:49:19;;;;;;;8.90;4.10;;;;;;;1.00;100.00;100571.63;4903365;29;20187;-80
2022/01/29 05:51:46;;;;;;;9.20;4.30;;;;;;;1.13;100.00;100582.75;4903096;29;20233;-80
2022/01/29 05:54:12;;;;;;;9.03;4.30;;;;;;;1.22;100.00;100556.38;4887964;29;20199;-80
2022/01/29 05:56:39;;;;;;;8.90;4.40;;;;;;;1.41;100.00;100567.94;4903163;29;20681;-80
2022/01/29 05:59:06;;;;;;;11.00;4.50;;;;;;;1.51;100.00;100561.69;4902369;29;20193;-80
2022/01/29 06:01:33;;;;;;;8.87;4.50;;;;;;;1.42;100.00;100559.03;4887710;29;20187;-80
2022/01/29 06:04:00;;;;;;;6.80;4.47;;;;;;;1.50;100.00;100562.66;4887746;29;20187;-80
2022/01/29 06:06:27;;;;;;;7.97;4.30;;;;;;;1.59;100.00;100560.97;4919881;29;20198;-80
2022/01/29 06:08:53;;;;;;;10.53;5.03;;;;;;;1.68;100.00;100555.69;4887313;29;20197;-80
2022/01/29 06:11:21;;;;;;;10.57;4.70;;;;;;;1.59;100.00;100555.69;4902882;29;20211;-80
2022/01/29 06:13:48;;;;;;;10.03;4.50;;;;;;;1.62;100.00;100558.91;4887686;29;20190;-80
2022/01/29 06:16:14;;;;;;;10.77;4.73;;;;;;;1.66;100.00;100560.31;4887045;29;20202;-79
2022/01/29 06:18:41;;;;;;;9.97;4.83;;;;;;;1.63;100.00;100557.13;4900372;29;20186;-80
2022/01/29 06:21:10;;;;;;;8.90;4.93;;;;;;;1.75;100.00;100569.19;4900567;29;20191;-79
2022/01/29 06:23:38;;;;;;;8.73;4.67;;;;;;;1.75;100.00;100583.25;4886280;29;20650;-79
2022/01/29 06:26:09;;;;;;;6.23;4.83;;;;;;;1.61;100.00;100565.16;4887346;29;20376;-79
2022/01/29 06:28:36;;;;;;;8.90;4.80;;;;;;;1.55;100.00;100555.16;4887050;29;20187;-80
2022/01/29 06:31:04;;;;;;;10.43;4.80;;;;;;;1.41;100.00;100531.81;4902351;29;20217;-80
2022/01/29 06:33:31;;;;;;;7.87;4.80;;;;;;;1.50;100.00;100533.59;4886804;29;20194;-81
2022/01/29 06:35:58;;;;;;;11.63;5.40;;;;;;;1.44;100.00;100546.56;4902298;29;20587;-80
2022/01/29 06:38:25;;;;;;;9.37;4.67;;;;;;;1.53;100.00;100545.72;4902373;29;20226;-80
2022/01/29 06:40:52;;;;;;;8.83;5.40;;;;;;;1.49;100.00;100560.19;4886482;29;20196;-81
2022/01/29 06:43:18;;;;;;;9.13;5.07;;;;;;;1.44;100.00;100557.94;4902333;29;20677;-80
2022/01/29 06:45:46;;;;;;;13.20;5.60;;;;;;;1.34;100.00;100557.09;4886501;29;20578;-80
2022/01/29 06:48:14;;;;;;;9.60;5.03;;;;;;;1.40;100.00;100564.47;4902220;29;20237;-80
2022/01/29 06:50:41;;;;;;;8.27;5.20;;;;;;;1.43;100.00;100560.72;4918832;29;20224;-80
2022/01/29 06:53:08;;;;;;;8.93;5.10;;;;;;;1.42;100.00;100561.69;4902021;29;20500;-79
2022/01/29 06:55:34;;;;;;;8.80;5.50;;;;;;;1.41;100.00;100552.09;4886243;29;20410;-80
2022/01/29 06:58:01;;;;;;;9.03;5.50;;;;;;;1.53;100.00;100566.84;4886382;29;20261;-80
2022/01/29 07:00:48;;;;;;;14.77;6.03;;;;;;;1.50;100.00;100557.38;4888595;29;20250;-80
2022/01/29 07:03:15;;;;;;;11.17;5.17;;;;;;;1.46;100.00;100548.06;4886395;29;20238;-80
2022/01/29 07:05:42;;;;;;;9.87;5.40;;;;;;;1.49;100.00;100552.25;4901675;29;20205;-80
2022/01/29 07:08:10;;;;;;;9.77;5.20;;;;;;;1.66;100.00;100539.16;4886257;29;20492;-80
2022/01/29 07:10:38;;;;;;;9.57;5.37;;;;;;;1.81;100.00;100542.22;4870905;29;20229;-80
2022/01/29 07:13:06;;;;;;;8.17;5.37;;;;;;;1.96;100.00;100543.41;4901767;29;20265;-80
2022/01/29 07:15:35;;;;;;;7.83;4.47;;;;;;;2.18;100.00;100552.84;4886282;29;20190;-80
2022/01/29 07:18:02;;;;;;;7.07;4.40;;;;;;;2.41;100.00;100538.28;4901665;29;20650;-80
2022/01/29 07:20:29;;;;;;;9.87;4.40;;;;;;;2.76;100.00;100547.31;4901528;29;20190;-80
2022/01/29 07:22:56;;;;;;;9.93;4.37;;;;;;;3.03;100.00;100529.59;4885652;29;20643;-80
2022/01/29 07:25:22;;;;;;;8.13;4.60;;;;;;;3.20;100.00;100521.84;4885886;29;20202;-81
2022/01/29 07:27:49;;;;;;;6.10;4.00;;;;;;;3.52;100.00;100524.78;4885734;29;20224;-81
2022/01/29 07:30:16;;;;;;;7.23;4.00;;;;;;;3.65;100.00;100538.47;4918066;29;20216;-80
2022/01/29 07:32:44;;;;;;;10.40;4.70;;;;;;;3.88;100.00;100534.34;4885722;29;20566;-80
2022/01/29 07:35:12;;;;;;;7.30;4.43;;;;;;;3.99;100.00;100527.97;4885766;29;20197;-80
2022/01/29 07:37:39;;;;;;;7.63;4.20;;;;;;;4.03;100.00;100512.56;4901266;29;20195;-79
2022/01/29 07:40:06;;;;;;;8.03;4.20;;;;;;;4.34;100.00;100525.19;4901104;29;20498;-80
2022/01/29 07:42:33;;;;;;;6.63;3.70;;;;;;;4.38;100.00;100523.06;4901335;29;20182;-80
2022/01/29 07:45:00;;;;;;;7.63;4.43;;;;;;;4.51;100.00;100520.78;4917785;29;20186;-80
2022/01/29 07:47:26;;;;;;;6.70;4.00;;;;;;;4.66;100.00;100521.88;4901041;29;20277;-79
2022/01/29 07:49:53;;;;;;;7.33;3.77;;;;;;;4.63;100.00;100519.50;4885917;29;20198;-80
2022/01/29 07:52:20;;;;;;;6.13;3.93;;;;;;;4.68;100.00;100525.19;4917650;29;20242;-80
2022/01/29 07:54:46;;;;;;;6.83;4.00;;;;;;;4.66;100.00;100521.03;4901168;29;20277;-80
2022/01/29 07:57:13;;;;;;;8.53;4.03;;;;;;;4.74;100.00;100521.06;4885468;29;20533;-80
2022/01/29 07:59:40;;;;;;;6.13;4.23;;;;;;;4.79;100.00;100516.94;4900956;29;20273;-80
2022/01/29 08:02:07;;;;;;;7.33;4.13;;;;;;;4.85;100.00;100516.25;4885582;29;20492;-80
2022/01/29 08:04:34;;;;;;;6.83;3.70;;;;;;;4.87;100.00;100502.84;4901134;29;20194;-80
2022/01/29 08:07:01;;;;;;;6.67;3.63;;;;;;;4.86;100.00;100498.50;4885254;29;20555;-80
2022/01/29 08:09:28;;;;;;;8.17;4.27;;;;;;;4.92;100.00;100505.84;4900162;29;20198;-80
2022/01/29 08:11:54;;;;;;;7.53;3.67;;;;;;;4.95;100.00;100499.38;4900160;29;20879;-80
2022/01/29 08:14:21;;;;;;;6.13;4.10;;;;;;;4.99;100.00;100495.41;4884969;29;20234;-80
2022/01/29 08:16:48;;;;;;;7.13;4.37;;;;;;;5.04;99.98;100496.56;4900530;29;20654;-80
2022/01/29 08:19:15;;;;;;;7.07;3.97;;;;;;;5.05;98.86;100482.28;4899909;29;20261;-80
2022/01/29 08:21:42;;;;;;;9.17;3.73;;;;;;;5.14;98.55;100483.97;4916210;29;20197;-80
2022/01/29 08:24:08;;;;;;;6.60;3.40;;;;;;;5.19;97.51;100492.28;4882389;29;20230;-81
2022/01/29 08:26:35;;;;;;;9.03;4.37;;;;;;;5.23;98.14;100495.44;4884151;29;20203;-80
2022/01/29 08:29:02;;;;;;;7.13;4.13;;;;;;;5.28;97.28;100488.63;4900727;29;20186;-78
2022/01/29 08:31:29;;;;;;;7.33;3.50;;;;;;;5.38;96.37;100499.13;4885346;29;20214;-80
2022/01/29 08:33:56;;;;;;;6.63;2.97;;;;;;;5.30;93.06;100485.81;4900842;29;20187;-81
2022/01/29 08:36:22;;;;;;;7.43;3.13;;;;;;;5.38;92.90;100491.13;4885110;29;20261;-80
2022/01/29 08:38:49;;;;;;;5.67;3.23;;;;;;;5.53;92.85;100505.44;4885141;29;20226;-80
2022/01/29 08:41:16;;;;;;;8.60;3.10;;;;;;;5.62;91.61;100503.59;4885036;29;20513;-78
2022/01/29 08:43:43;;;;;;;6.73;3.73;;;;;;;5.66;91.40;100494.28;4865831;29;20209;-82
2022/01/29 08:46:10;;;;;;;9.27;4.37;;;;;;;5.64;91.43;100494.47;4899276;29;20202;-77
2022/01/29 08:48:37;;;;;;;7.30;4.27;;;;;;;5.58;93.30;100499.63;4900615;29;20186;-80
2022/01/29 08:51:03;;;;;;;8.07;4.60;;;;;;;5.60;94.05;100482.50;4898841;29;20232;-81
2022/01/29 08:53:30;;;;;;;10.70;5.77;;;;;;;5.59;96.61;100496.81;4916320;29;20285;-80
2022/01/29 08:55:57;;;;;;;8.70;5.90;;;;;;;5.54;97.40;100496.47;4916639;29;20201;-78
2022/01/29 08:58:24;;;;;;;8.40;5.57;;;;;;;5.52;96.54;100479.84;4916830;29;20198;-80
2022/01/29 09:00:50;;;;;;;11.07;5.43;;;;;;;5.55;96.21;100497.31;4929356;29;20197;-79
2022/01/29 09:03:18;;;;;;;10.40;4.97;;;;;;;5.57;95.53;100504.09;4920497;29;20209;-81
2022/01/29 09:05:45;;;;;;;8.13;4.63;;;;;;;5.59;93.70;100482.69;4920547;29;20197;-81
2022/01/29 09:08:15;;;;;;;10.00;4.70;;;;;;;5.74;92.10;100479.16;4937513;29;20186;-80
2022/01/29 09:10:42;;;;;;;8.53;4.30;;;;;;;5.93;90.34;100487.81;4920815;29;20201;-77
2022/01/29 09:13:10;;;;;;;9.77;4.47;;;;;;;5.97;89.46;100492.63;4889263;29;20523;-79
2022/01/29 09:15:36;;;;;;;7.30;4.07;;;;;;;6.05;89.20;100475.84;4904760;29;20212;-79
2022/01/29 09:18:03;;;;;;;9.07;4.80;;;;;;;6.22;88.71;100485.44;4920592;29;20201;-78
2022/01/29 09:20:31;;;;;;;10.93;4.53;;;;;;;6.35;87.60;100485.72;4904951;29;20185;-80
2022/01/29 09:22:57;;;;;;;8.93;4.07;;;;;;;6.35;86.54;100501.69;4920432;29;20323;-78
2022/01/29 09:25:26;;;;;;;12.07;4.93;;;;;;;6.36;84.85;100478.56;4904564;29;20196;-78
2022/01/29 09:27:53;;;;;;;10.83;5.20;;;;;;;6.29;86.21;100496.22;4937285;29;20220;-79
2022/01/29 09:30:20;;;;;;;9.50;5.13;;;;;;;6.34;86.10;100484.06;4904610;29;20192;-79
2022/01/29 09:32:48;;;;;;;8.80;4.57;;;;;;;6.20;86.59;100482.94;4936973;29;20214;-79
2022/01/29 09:35:16;;;;;;;7.87;4.40;;;;;;;6.24;85.96;100466.63;4906187;29;20507;-79
2022/01/29 09:37:43;;;;;;;6.83;4.30;;;;;;;6.29;87.48;100480.25;4940248;29;20244;-78
2022/01/29 09:40:11;;;;;;;9.90;4.43;;;;;;;6.49;85.00;100470.84;4907351;29;20574;-78
2022/01/29 09:42:39;;;;;;;5.20;2.50;;;;;;;6.47;79.73;100439.09;4923549;29;20250;-80
2022/01/29 09:45:11;;;;;;;6.93;2.17;;;;;;;6.64;76.62;100445.16;4906793;29;20573;-80
2022/01/29 09:47:38;;;;;;;3.60;2.03;;;;;;;6.85;75.16;100441.91;4919955;29;20182;-80
2022/01/29 09:50:05;;;;;;;2.80;1.73;;;;;;;7.12;74.52;100421.88;4901686;29;20198;-80
2022/01/29 09:52:32;;;;;;;4.60;1.90;;;;;;;7.25;73.10;100406.13;4887494;29;20308;-81
2022/01/29 09:54:59;;;;;;;2.83;1.70;;;;;;;7.45;71.77;100408.13;4903481;29;20213;-80
2022/01/29 09:57:26;;;;;;;4.73;1.83;;;;;;;7.67;69.88;100409.06;4903775;29;20535;-80
2022/01/29 09:59:53;;;;;;;3.00;1.70;;;;;;;7.82;68.49;100387.75;4887499;29;20296;-78
2022/01/29 10:02:20;;;;;;;2.53;1.67;;;;;;;8.02;68.24;100380.88;4903006;29;20195;-80
2022/01/29 10:04:54;;;;;;;2.83;1.80;;;;;;;8.34;67.19;100390.34;4903431;29;20198;-78
2022/01/29 10:07:23;;;;;;;2.23;1.50;;;;;;;8.48;66.58;100378.81;4903370;29;20190;-79
2022/01/29 10:09:49;;;;;;;2.50;1.77;;;;;;;8.55;66.17;100366.34;4919883;29;20505;-78
2022/01/29 10:12:21;;;;;;;3.40;1.50;;;;;;;8.67;64.98;100364.00;4902918;29;20610;-78
2022/01/29 10:14:49;;;;;;;2.67;1.73;;;;;;;8.98;65.01;100332.44;4903118;29;20186;-79
2022/01/29 10:17:43;;;;;;;3.67;1.83;;;;;;;9.09;62.36;100339.13;4903255;29;20654;-77
2022/01/29 10:20:14;;;;;;;3.37;1.47;;;;;;;9.36;62.95;100340.16;4902685;29;20576;-78
2022/01/29 10:22:43;;;;;;;4.60;1.67;;;;;;;9.49;61.48;100335.72;4919619;29;20527;-78
2022/01/29 10:25:13;;;;;;;3.03;1.40;;;;;;;9.47;60.22;100321.72;4903058;29;20193;-77
2022/01/29 10:28:03;;;;;;;4.20;2.00;;;;;;;9.74;59.69;100320.03;4887592;29;20217;-77
2022/01/29 10:30:30;;;;;;;4.97;2.67;;;;;;;9.75;60.23;100312.84;4902913;29;20186;-79
2022/01/29 10:33:22;;;;;;;4.60;2.90;;;;;;;9.80;60.21;100310.41;4887099;29;20222;-78
2022/01/29 10:35:51;;;;;;;4.77;3.17;;;;;;;9.77;59.96;100300.91;4919365;29;20185;-78
2022/01/29 10:38:23;;;;;;;5.27;2.60;;;;;;;9.87;58.30;100296.03;4887173;29;20197;-77
2022/01/29 10:41:17;;;;;;;5.67;2.47;;;;;;;9.93;57.06;100307.78;4902575;29;20213;-79
2022/01/29 10:44:14;;;;;;;3.43;2.50;;;;;;;9.81;60.10;100310.19;4907999;29;20207;-78
2022/01/29 10:46:47;;;;;;;5.67;2.43;;;;;;;9.63;59.23;100297.34;4903303;29;20195;-77
2022/01/29 10:49:20;;;;;;;4.43;2.30;;;;;;;9.80;59.57;100297.03;4887013;29;20292;-77
2022/01/29 10:52:03;;;;;;;6.80;2.10;;;;;;;10.00;58.86;100295.25;4902478;29;20209;-77
2022/01/29 10:54:36;;;;;;;3.50;2.20;;;;;;;10.03;59.23;100302.91;4919040;29;20189;-78
2022/01/29 10:57:04;;;;;;;6.27;2.10;;;;;;;10.07;57.31;100306.81;4902426;29;20231;-78
2022/01/29 10:59:46;;;;;;;4.73;2.80;;;;;;;10.00;58.81;100292.56;4902897;29;20187;-77
2022/01/29 11:02:13;;;;;;;3.63;2.37;;;;;;;10.10;56.36;100285.00;4886698;29;20198;-77
2022/01/29 11:04:41;;;;;;;4.80;2.40;;;;;;;10.01;54.32;100281.69;4902282;29;20269;-77
2022/01/29 11:07:16;;;;;;;3.37;2.20;;;;;;;10.03;55.78;100292.19;4919714;29;20299;-76
2022/01/29 11:09:50;;;;;;;4.07;2.40;;;;;;;9.87;52.51;100276.47;4888165;29;20197;-76
2022/01/29 11:12:22;;;;;;;2.73;2.07;;;;;;;10.06;51.95;100286.44;4902213;29;20261;-78
2022/01/29 11:14:52;;;;;;;1.80;1.60;;;;;;;10.02;49.93;100288.69;4901758;29;20233;-79
2022/01/29 11:17:18;;;;;;;2.57;1.43;;;;;;;9.95;49.53;100284.31;4881461;29;20201;-80
2022/01/29 11:19:46;;;;;;;1.50;1.40;;;;;;;9.99;48.81;100288.25;4917596;29;20221;-79
2022/01/29 11:22:13;;;;;;;2.13;1.27;;;;;;;9.85;48.61;100279.31;4870271;29;20190;-79
2022/01/29 11:24:41;;;;;;;1.77;1.10;;;;;;;9.85;49.48;100290.03;4882145;29;20237;-80
2022/01/29 11:27:29;;;;;;;1.20;1.10;;;;;;;9.85;49.83;100306.09;4867055;29;20662;-80
2022/01/29 11:29:58;;;;;;;0.60;0.60;;;;;;;9.60;52.08;100323.66;4896131;29;20234;-79
2022/01/29 11:32:27;;;;;;;0.70;0.63;;;;;;;9.18;56.78;100312.06;4918126;29;20637;-79
2022/01/29 11:35:22;;;;;;;1.57;1.03;;;;;;;8.90;61.12;100321.91;4900933;29;20202;-79
2022/01/29 11:37:53;;;;;;;1.27;0.97;;;;;;;8.58;62.98;100279.69;4872181;29;20613;-80
2022/01/29 11:40:21;;;;;;;1.90;0.87;;;;;;;8.70;64.29;100300.34;4917906;29;20202;-79
2022/01/29 11:43:09;;;;;;;1.13;0.70;;;;;;;8.43;66.60;100274.38;4885732;29;20194;-79
2022/01/29 11:45:40;;;;;;;1.60;1.10;;;;;;;8.26;67.92;100271.09;4900705;29;20743;-80
2022/01/29 11:48:29;;;;;;;1.00;0.87;;;;;;;8.26;69.28;100251.56;4917892;29;20179;-80